TAF Text Data
IDs:
Format:
Raw Decoded Include METAR

Data at: 1442 UTC 21 Feb 2019

KTLH 211137Z 2112/2212 16005KT P6SM OVC005
  FM211500 17008KT P6SM OVC010
  FM211700 18010KT P6SM BKN025
  FM212000 18010KT P6SM BKN035
  FM220600 12003KT 1SM BR OVC004